Time;durP1;ratioP1;P1;durP2;ratioP2;P2;SDS_P1;SDS_P2;PMS_P1;PMS_P2;Temp;Humidity;BMP_temperature;BMP_pressure;BME280_temperature;BME280_humidity;BME280_pressure;Samples;Min_cycle;Max_cycle;Signal;HPM_P1;HPM_P2
2022/08/08 00:00:16;;;;;;;3.28;2.40;;;;;;;21.53;47.68;99504.34;5148926;27;20062;-69
2022/08/08 00:02:51;;;;;;;3.50;2.60;;;;;;;21.57;47.43;99488.69;5149109;27;20119;-69
2022/08/08 00:05:23;;;;;;;5.45;4.30;;;;;;;21.59;47.37;99492.09;5149185;27;20221;-69
2022/08/08 00:08:02;;;;;;;6.50;5.70;;;;;;;21.49;47.39;99464.34;5148986;27;20059;-69
2022/08/08 00:10:35;;;;;;;5.25;4.28;;;;;;;21.55;47.67;99479.91;5149142;27;20104;-69
2022/08/08 00:13:09;;;;;;;4.35;3.25;;;;;;;21.55;47.89;99480.75;5149133;27;20111;-69
2022/08/08 00:15:41;;;;;;;3.47;2.78;;;;;;;21.52;47.77;99475.69;5148720;27;20292;-69
2022/08/08 00:18:16;;;;;;;3.70;3.08;;;;;;;21.42;47.68;99461.41;5149011;27;20100;-69
2022/08/08 00:20:49;;;;;;;4.30;2.80;;;;;;;21.52;47.57;99482.91;5148955;27;20055;-69
2022/08/08 00:23:25;;;;;;;4.32;2.72;;;;;;;20.98;47.55;99395.66;5148866;27;20051;-69
2022/08/08 00:25:56;;;;;;;3.75;2.72;;;;;;;21.31;47.76;99451.69;5148584;27;20047;-69
2022/08/08 00:28:29;;;;;;;3.33;2.58;;;;;;;21.47;47.67;99480.69;5148405;27;20112;-68
2022/08/08 00:31:00;;;;;;;3.53;2.40;;;;;;;21.44;47.44;99484.53;5148456;27;20055;-68
2022/08/08 00:33:32;;;;;;;4.53;2.58;;;;;;;21.46;47.58;99482.53;5148781;27;20055;-68
2022/08/08 00:36:05;;;;;;;4.03;2.78;;;;;;;21.42;47.44;99488.38;5148822;27;20055;-69
2022/08/08 00:38:46;;;;;;;3.42;2.50;;;;;;;21.41;47.94;99490.22;5148405;27;20372;-68
2022/08/08 00:41:44;;;;;;;3.72;2.70;;;;;;;21.24;47.96;99463.22;5148722;27;20043;-68
2022/08/08 00:44:32;;;;;;;5.90;3.05;;;;;;;21.37;47.50;99486.13;5132423;27;20327;-69
2022/08/08 00:47:38;;;;;;;3.53;2.60;;;;;;;21.35;47.87;99481.88;5148148;27;20055;-68
2022/08/08 00:50:41;;;;;;;4.20;3.03;;;;;;;21.32;47.86;99469.56;5148095;27;20055;-69
2022/08/08 00:53:19;;;;;;;3.72;2.75;;;;;;;21.32;48.12;99469.56;5147969;27;20051;-69
2022/08/08 00:56:19;;;;;;;3.00;2.45;;;;;;;21.33;47.85;99470.41;5148078;27;20261;-69
2022/08/08 00:59:17;;;;;;;4.03;2.47;;;;;;;21.29;48.26;99469.84;5130305;27;20054;-68
2022/08/08 01:02:00;;;;;;;3.78;2.65;;;;;;;21.29;48.31;99486.03;5148058;27;20078;-69
2022/08/08 01:04:58;;;;;;;4.53;2.80;;;;;;;21.31;48.21;99475.09;5148170;27;20065;-69
2022/08/08 01:08:10;;;;;;;4.93;2.40;;;;;;;21.07;47.87;99454.94;5148329;27;20103;-68
2022/08/08 01:11:12;;;;;;;3.50;2.47;;;;;;;21.24;48.37;99482.94;5147698;27;20245;-68
2022/08/08 01:14:30;;;;;;;4.72;2.50;;;;;;;21.22;48.37;99476.00;5147993;27;20063;-69
2022/08/08 01:17:27;;;;;;;4.25;3.10;;;;;;;21.18;48.02;99472.75;5045170;28;20053;-68
2022/08/08 01:20:31;;;;;;;3.50;2.80;;;;;;;21.03;48.20;99453.53;5044778;28;20065;-68
2022/08/08 01:23:17;;;;;;;4.97;3.05;;;;;;;21.00;48.07;99447.56;5127426;27;20051;-69
2022/08/08 01:26:08;;;;;;;3.63;2.72;;;;;;;21.14;47.99;99465.94;5147809;27;20059;-68
2022/08/08 01:29:02;;;;;;;4.00;2.55;;;;;;;21.12;47.96;99466.09;5146692;27;20051;-68
2022/08/08 01:31:56;;;;;;;4.00;2.83;;;;;;;21.10;48.00;99461.88;5147545;27;20070;-69
2022/08/08 01:35:08;;;;;;;3.58;2.70;;;;;;;21.04;48.08;99465.16;5147466;27;20118;-69
2022/08/08 01:38:06;;;;;;;3.85;2.75;;;;;;;21.05;48.29;99464.16;5147160;27;20102;-68
2022/08/08 01:40:41;;;;;;;4.43;3.00;;;;;;;21.03;48.41;99458.91;5147496;27;20051;-68
2022/08/08 01:43:24;;;;;;;3.63;2.60;;;;;;;21.04;48.33;99468.69;5146628;27;20059;-68
2022/08/08 01:46:00;;;;;;;3.72;2.65;;;;;;;21.04;48.53;99470.53;5147015;27;20051;-68
2022/08/08 01:48:42;;;;;;;3.67;2.95;;;;;;;21.02;48.82;99475.19;5147080;27;20055;-68
2022/08/08 01:51:32;;;;;;;3.75;2.85;;;;;;;20.83;48.59;99455.41;5147233;27;20055;-68
2022/08/08 01:54:08;;;;;;;3.67;2.85;;;;;;;20.95;48.50;99477.63;5145261;27;20055;-69
2022/08/08 01:56:48;;;;;;;4.25;2.92;;;;;;;20.91;48.61;99480.75;5146873;27;20365;-69
2022/08/08 01:59:41;;;;;;;3.67;2.70;;;;;;;20.97;48.59;99482.88;5147066;27;20057;-69
2022/08/08 02:02:16;;;;;;;4.40;2.97;;;;;;;20.92;48.71;99485.16;5146885;27;20084;-68
2022/08/08 02:04:53;;;;;;;3.35;2.47;;;;;;;20.98;48.43;99490.81;5146664;27;20055;-68
2022/08/08 02:07:29;;;;;;;4.63;2.78;;;;;;;20.95;48.72;99488.41;5147064;27;20254;-68
2022/08/08 02:10:10;;;;;;;4.07;2.80;;;;;;;20.94;48.44;99486.72;5147003;27;20384;-68
2022/08/08 02:12:50;;;;;;;4.05;2.55;;;;;;;20.90;48.76;99485.31;5146631;27;20055;-68
2022/08/08 02:15:27;;;;;;;3.40;2.30;;;;;;;20.89;48.65;99485.44;5146890;27;20123;-68
2022/08/08 02:18:06;;;;;;;3.78;2.67;;;;;;;20.87;48.78;99487.44;5146656;27;20058;-68
2022/08/08 02:20:43;;;;;;;4.40;2.72;;;;;;;20.87;48.65;99487.44;5146493;27;20063;-68
2022/08/08 02:23:19;;;;;;;3.75;2.90;;;;;;;20.87;48.54;99490.13;5146973;27;20150;-68
2022/08/08 02:25:59;;;;;;;3.80;2.80;;;;;;;20.86;48.59;99489.28;5146758;27;20055;-69
2022/08/08 02:28:45;;;;;;;3.38;2.63;;;;;;;20.85;48.87;99486.75;5146301;27;20055;-69
2022/08/08 02:31:26;;;;;;;3.92;2.75;;;;;;;20.82;49.06;99485.19;5145899;27;20060;-69
2022/08/08 02:34:05;;;;;;;4.53;2.90;;;;;;;20.82;49.07;99487.88;5146188;27;20063;-69
2022/08/08 02:36:40;;;;;;;6.00;5.28;;;;;;;20.78;48.81;99478.41;5146768;27;20104;-69
2022/08/08 02:39:25;;;;;;;6.93;5.55;;;;;;;20.62;48.90;99462.00;5146027;27;20059;-69
2022/08/08 02:42:19;;;;;;;4.72;3.63;;;;;;;20.74;48.91;99483.22;5146507;27;20055;-69
2022/08/08 02:45:17;;;;;;;5.20;4.18;;;;;;;20.67;48.73;99481.25;5105888;28;20052;-69
2022/08/08 02:48:24;;;;;;;7.38;4.60;;;;;;;20.63;48.79;99488.78;5105200;28;20110;-69
2022/08/08 02:51:41;;;;;;;6.13;4.60;;;;;;;20.62;49.04;99489.78;5105244;28;20064;-69
2022/08/08 02:54:34;;;;;;;6.00;4.72;;;;;;;20.41;49.17;99463.03;5104612;28;20056;-68
2022/08/08 02:57:31;;;;;;;4.40;3.53;;;;;;;20.44;49.32;99462.75;5105581;28;20081;-69
2022/08/08 03:00:41;;;;;;;5.35;4.00;;;;;;;20.57;49.03;99489.38;5105601;28;20105;-68
2022/08/08 03:03:50;;;;;;;4.15;3.30;;;;;;;20.57;49.09;99494.75;5105527;28;20357;-69
2022/08/08 03:06:48;;;;;;;4.07;3.28;;;;;;;20.58;49.46;99496.44;5069567;28;20064;-69
2022/08/08 03:10:01;;;;;;;3.88;3.20;;;;;;;20.53;49.28;99501.41;5105495;28;20296;-68
2022/08/08 03:13:19;;;;;;;4.97;2.88;;;;;;;20.48;49.66;99504.53;5105287;28;20063;-69
2022/08/08 03:16:16;;;;;;;6.88;4.00;;;;;;;20.50;49.29;99499.88;5030691;28;20112;-69
2022/08/08 03:18:58;;;;;;;7.45;4.50;;;;;;;20.55;49.34;99495.88;5037299;28;20053;-68
2022/08/08 03:21:25;;;;;;;6.13;5.50;;;;;;;20.51;49.60;99487.25;5097160;28;20109;-68
2022/08/08 03:23:53;;;;;;;5.50;4.25;;;;;;;20.54;49.01;99484.28;5104929;28;20060;-69
2022/08/08 03:26:30;;;;;;;5.20;4.13;;;;;;;20.50;49.21;99485.56;5105299;28;20112;-69
2022/08/08 03:29:01;;;;;;;3.35;2.50;;;;;;;20.07;49.09;99418.72;5105253;28;20113;-69
2022/08/08 03:34:14;;;;;;;5.85;2.97;;;;;;;20.46;49.24;99500.28;5105097;28;20077;-68
2022/08/08 03:36:42;;;;;;;4.35;2.53;;;;;;;20.47;49.16;99504.69;5104932;28;20059;-69
2022/08/08 03:39:12;;;;;;;4.28;2.85;;;;;;;20.09;49.39;99446.34;5104984;28;20060;-69
2022/08/08 03:41:41;;;;;;;5.93;3.95;;;;;;;20.42;49.45;99505.13;5105376;28;20296;-68
2022/08/08 03:44:08;;;;;;;4.32;3.15;;;;;;;20.41;49.55;99502.56;5136804;28;20115;-69
2022/08/08 03:46:46;;;;;;;5.88;3.17;;;;;;;20.40;49.37;99508.94;5145836;28;20062;-68
2022/08/08 03:49:19;;;;;;;5.88;3.38;;;;;;;20.37;49.19;99514.63;5145763;28;20171;-69
2022/08/08 03:51:47;;;;;;;10.38;4.10;;;;;;;20.12;49.20;99506.09;5148251;27;20115;-69
2022/08/08 03:54:16;;;;;;;5.40;4.47;;;;;;;20.23;49.16;99509.66;5149333;27;20307;-69
2022/08/08 03:56:43;;;;;;;8.73;5.07;;;;;;;20.25;49.32;99508.53;5149651;27;20104;-69
2022/08/08 03:59:13;;;;;;;5.57;4.00;;;;;;;20.26;49.83;99507.53;5149676;27;20261;-69
2022/08/08 04:01:41;;;;;;;5.38;4.20;;;;;;;20.28;49.78;99515.47;5149516;27;20130;-69
2022/08/08 04:04:09;;;;;;;6.00;4.55;;;;;;;20.28;49.39;99521.72;5148846;27;20099;-69
2022/08/08 04:06:37;;;;;;;5.57;4.03;;;;;;;20.17;49.87;99525.34;5149010;27;20055;-68
2022/08/08 04:09:07;;;;;;;7.03;3.70;;;;;;;20.21;49.86;99523.22;5148809;27;20051;-69
2022/08/08 04:11:39;;;;;;;4.07;2.97;;;;;;;20.21;49.37;99511.63;5148840;27;20080;-69
2022/08/08 04:14:06;;;;;;;3.97;3.20;;;;;;;20.08;49.34;99493.06;5148833;27;20055;-68
2022/08/08 04:16:33;;;;;;;5.97;3.63;;;;;;;20.22;49.71;99521.38;5148810;27;20055;-69
2022/08/08 04:19:00;;;;;;;4.85;3.10;;;;;;;20.23;49.26;99520.44;5149025;27;20055;-69
2022/08/08 04:21:28;;;;;;;4.93;3.70;;;;;;;20.15;49.81;99513.88;5148999;27;20063;-68
2022/08/08 04:23:55;;;;;;;5.75;2.83;;;;;;;20.05;49.80;99498.72;5148649;27;20058;-69
2022/08/08 04:26:22;;;;;;;7.38;3.38;;;;;;;20.17;49.83;99521.81;5148305;27;20059;-69
2022/08/08 04:28:51;;;;;;;4.30;3.10;;;;;;;20.11;49.37;99511.63;5148310;27;20051;-68
2022/08/08 04:31:18;;;;;;;5.32;3.00;;;;;;;20.14;49.76;99525.63;5148685;27;20059;-68
2022/08/08 04:33:45;;;;;;;3.80;2.97;;;;;;;20.17;49.44;99527.19;5148595;27;20431;-69
2022/08/08 04:36:12;;;;;;;5.00;3.67;;;;;;;20.13;49.45;99541.94;5148387;27;20059;-68
2022/08/08 04:38:39;;;;;;;5.22;3.42;;;;;;;20.13;49.07;99547.31;5148668;27;20059;-68
2022/08/08 04:41:07;;;;;;;4.07;3.30;;;;;;;20.11;49.17;99549.28;5148331;27;20066;-69
2022/08/08 04:43:34;;;;;;;4.38;2.85;;;;;;;19.57;49.08;99474.44;5148189;27;20051;-68
2022/08/08 04:46:04;;;;;;;3.95;2.80;;;;;;;20.07;48.76;99553.25;5148292;27;20054;-69
2022/08/08 04:48:31;;;;;;;6.60;3.05;;;;;;;19.99;49.02;99545.88;5148223;27;20047;-68
2022/08/08 04:50:58;;;;;;;6.70;2.75;;;;;;;20.02;48.89;99560.88;5148138;27;20055;-68
2022/08/08 04:53:26;;;;;;;4.60;3.30;;;;;;;20.00;48.70;99554.78;5148530;27;20112;-69
2022/08/08 04:55:53;;;;;;;3.85;2.78;;;;;;;20.06;49.01;99557.78;5148090;27;20055;-68
2022/08/08 04:58:20;;;;;;;4.35;2.80;;;;;;;20.06;49.26;99552.41;5148448;27;20360;-69
2022/08/08 05:00:47;;;;;;;4.00;3.05;;;;;;;20.09;48.57;99546.72;5148103;27;20082;-69
2022/08/08 05:03:16;;;;;;;4.30;2.45;;;;;;;20.04;48.56;99542.78;5148079;27;20233;-69
2022/08/08 05:05:43;;;;;;;6.97;5.10;;;;;;;20.05;48.64;99542.63;5147848;27;20094;-69
2022/08/08 05:08:12;;;;;;;7.70;5.53;;;;;;;20.07;48.59;99539.78;5148244;27;20111;-69
2022/08/08 05:10:39;;;;;;;5.18;4.07;;;;;;;20.08;48.62;99541.50;5148057;27;20311;-69
2022/08/08 05:13:06;;;;;;;4.85;3.33;;;;;;;20.11;48.67;99544.75;5147798;27;20050;-69
2022/08/08 05:15:34;;;;;;;4.50;3.35;;;;;;;20.08;48.46;99545.03;5147493;27;20063;-69
2022/08/08 05:18:01;;;;;;;4.28;2.88;;;;;;;20.10;48.49;99547.59;5148010;27;20058;-68
2022/08/08 05:20:29;;;;;;;4.47;2.72;;;;;;;20.16;48.37;99538.94;5147681;27;20100;-69
2022/08/08 05:22:56;;;;;;;5.35;3.03;;;;;;;20.17;48.28;99541.50;5147596;27;20319;-69
2022/08/08 05:25:24;;;;;;;4.57;3.95;;;;;;;20.13;48.15;99539.22;5129558;27;20352;-69
2022/08/08 05:27:52;;;;;;;3.80;2.95;;;;;;;20.13;48.17;99556.22;5147424;27;20055;-69
2022/08/08 05:30:19;;;;;;;3.70;2.88;;;;;;;20.03;48.09;99519.53;5146775;27;20063;-69
2022/08/08 05:32:47;;;;;;;4.15;3.08;;;;;;;20.13;48.18;99552.69;5147217;27;20058;-69
2022/08/08 05:35:14;;;;;;;6.00;3.08;;;;;;;20.01;47.92;99525.06;5147445;27;20062;-69
2022/08/08 05:37:48;;;;;;;4.13;3.20;;;;;;;20.18;48.12;99556.66;5147437;27;20100;-69
2022/08/08 05:40:17;;;;;;;5.00;3.00;;;;;;;20.16;48.08;99555.94;5147468;27;20055;-69
2022/08/08 05:42:46;;;;;;;6.70;3.20;;;;;;;20.22;48.20;99573.41;5146913;27;20062;-69
2022/08/08 05:45:13;;;;;;;6.43;3.20;;;;;;;19.48;47.25;99473.44;5147497;27;20311;-71
2022/08/08 05:47:41;;;;;;;4.30;2.72;;;;;;;20.11;47.56;99574.34;5147092;27;20108;-69
2022/08/08 05:50:10;;;;;;;3.58;2.53;;;;;;;20.16;47.47;99576.63;5147228;27;20043;-69
2022/08/08 05:52:38;;;;;;;9.35;3.05;;;;;;;20.17;47.97;99581.00;5147485;27;20080;-69
2022/08/08 05:55:09;;;;;;;4.45;2.67;;;;;;;19.78;47.63;99521.75;5147269;27;20051;-68
2022/08/08 05:57:38;;;;;;;5.57;2.90;;;;;;;20.17;47.43;99578.31;5147095;27;20047;-68
2022/08/08 06:00:08;;;;;;;4.72;2.67;;;;;;;20.18;47.21;99578.19;5147099;27;20058;-68
2022/08/08 06:05:22;;;;;;;4.75;3.17;;;;;;;20.24;46.90;99579.50;5128953;27;20088;-69
2022/08/08 06:07:51;;;;;;;5.22;3.65;;;;;;;20.15;46.75;99558.78;5146764;27;20055;-68
2022/08/08 06:10:20;;;;;;;5.28;3.20;;;;;;;20.30;46.96;99584.31;5146772;27;20063;-69
2022/08/08 06:12:48;;;;;;;5.22;2.97;;;;;;;20.31;46.84;99590.53;5146038;27;20054;-69
2022/08/08 06:15:15;;;;;;;3.78;2.78;;;;;;;20.28;46.95;99574.69;5146045;27;20108;-69
2022/08/08 06:17:43;;;;;;;4.35;2.55;;;;;;;20.28;46.43;99588.97;5146227;27;20104;-69
2022/08/08 06:20:12;;;;;;;4.63;2.70;;;;;;;20.32;46.52;99595.78;5146494;27;20187;-69
2022/08/08 06:22:40;;;;;;;4.10;2.40;;;;;;;20.32;45.97;99600.31;5146709;27;20096;-69
2022/08/08 06:25:08;;;;;;;4.53;2.42;;;;;;;20.35;46.02;99606.28;5146275;27;20104;-69
2022/08/08 06:27:45;;;;;;;3.63;2.28;;;;;;;20.37;45.47;99601.59;5146331;27;20326;-69
2022/08/08 06:30:14;;;;;;;3.55;2.53;;;;;;;20.39;45.96;99591.53;5146714;27;20043;-69
2022/08/08 06:32:44;;;;;;;4.55;2.47;;;;;;;20.40;46.15;99593.25;5146324;27;20085;-69
2022/08/08 06:35:14;;;;;;;5.70;2.78;;;;;;;20.45;45.99;99604.44;5145865;27;20062;-70
2022/08/08 06:37:45;;;;;;;4.18;2.30;;;;;;;20.43;46.05;99606.41;5146291;27;20076;-70
2022/08/08 06:40:14;;;;;;;5.40;2.33;;;;;;;20.46;46.44;99603.44;5146258;27;20303;-70
2022/08/08 06:42:47;;;;;;;4.68;2.70;;;;;;;20.48;46.29;99598.78;5146131;27;20326;-70
2022/08/08 06:45:15;;;;;;;4.03;2.30;;;;;;;20.47;46.52;99607.00;5146182;28;20063;-70
2022/08/08 06:47:43;;;;;;;5.47;2.47;;;;;;;20.55;46.31;99604.44;5146378;28;20253;-69
2022/08/08 06:50:11;;;;;;;4.03;2.50;;;;;;;20.58;46.06;99606.00;5146334;28;20055;-69
2022/08/08 06:52:38;;;;;;;3.90;2.38;;;;;;;20.17;45.67;99535.28;5146621;28;20055;-69
2022/08/08 06:55:07;;;;;;;3.55;2.40;;;;;;;20.68;45.63;99610.38;5146317;28;20257;-69
2022/08/08 06:57:34;;;;;;;3.35;2.45;;;;;;;20.71;45.65;99603.88;5146687;28;20055;-69
2022/08/08 07:00:06;;;;;;;3.85;2.70;;;;;;;20.72;45.46;99610.94;5146702;28;20144;-69
2022/08/08 07:02:35;;;;;;;4.40;2.22;;;;;;;20.74;45.31;99611.66;5146526;28;20112;-69
2022/08/08 07:05:06;;;;;;;3.90;2.42;;;;;;;20.75;45.42;99607.97;5146297;28;20307;-69
2022/08/08 07:07:54;;;;;;;4.28;2.05;;;;;;;20.72;45.68;99609.09;5146007;28;20039;-69
2022/08/08 07:10:24;;;;;;;2.95;1.90;;;;;;;20.35;45.42;99557.81;5127648;28;20039;-70
2022/08/08 07:12:53;;;;;;;3.75;2.38;;;;;;;20.75;45.31;99622.28;5145582;28;20143;-70
2022/08/08 07:15:33;;;;;;;4.18;2.38;;;;;;;20.76;45.28;99623.97;5145858;28;20063;-70
2022/08/08 07:18:05;;;;;;;4.07;2.30;;;;;;;20.33;45.19;99583.19;5145759;28;20058;-69
2022/08/08 07:20:36;;;;;;;3.00;1.90;;;;;;;20.63;45.53;99634.19;5145795;28;20051;-70
2022/08/08 07:23:10;;;;;;;3.80;2.25;;;;;;;20.71;45.71;99636.19;5145836;28;20075;-69
2022/08/08 07:25:40;;;;;;;3.70;2.03;;;;;;;20.58;45.61;99625.69;5146733;27;20059;-70
2022/08/08 07:28:10;;;;;;;3.95;2.42;;;;;;;19.97;46.05;99534.41;5149564;27;20115;-68
2022/08/08 07:30:39;;;;;;;3.95;1.75;;;;;;;20.58;46.14;99627.53;5149720;27;20051;-68
2022/08/08 07:33:07;;;;;;;4.90;2.55;;;;;;;20.14;46.02;99560.63;5149024;27;20062;-68
2022/08/08 07:35:37;;;;;;;4.05;2.28;;;;;;;20.59;46.67;99605.84;5149072;27;20112;-68
2022/08/08 07:38:04;;;;;;;4.43;2.70;;;;;;;20.59;46.58;99627.41;5149578;27;20051;-69
2022/08/08 07:40:32;;;;;;;3.75;2.17;;;;;;;20.55;46.36;99633.19;5131580;27;20096;-68
2022/08/08 07:43:02;;;;;;;3.97;2.17;;;;;;;20.54;46.94;99635.03;5149098;27;20050;-68
2022/08/08 07:45:29;;;;;;;6.68;2.30;;;;;;;20.39;47.33;99614.91;5149184;27;20100;-69
2022/08/08 07:47:58;;;;;;;4.07;2.33;;;;;;;20.54;47.33;99640.44;5149175;27;20253;-68
2022/08/08 07:50:25;;;;;;;4.30;1.98;;;;;;;20.48;48.28;99641.00;5149098;27;20170;-68
2022/08/08 07:52:59;;;;;;;3.22;2.00;;;;;;;20.50;48.46;99663.25;5149312;27;20051;-69
2022/08/08 07:55:28;;;;;;;4.57;2.55;;;;;;;20.23;49.34;99631.63;5149097;27;20084;-68
2022/08/08 07:58:08;;;;;;;3.90;2.03;;;;;;;20.35;51.42;99657.41;5149018;27;20285;-68
2022/08/08 08:00:40;;;;;;;3.65;2.28;;;;;;;20.23;51.46;99641.53;5148921;27;20058;-68
2022/08/08 08:03:12;;;;;;;4.22;2.30;;;;;;;20.24;51.25;99646.78;5149264;27;20096;-69
2022/08/08 08:05:42;;;;;;;5.28;2.70;;;;;;;20.33;52.65;99662.09;5148824;27;20250;-68
2022/08/08 08:08:16;;;;;;;4.85;2.47;;;;;;;20.27;52.70;99665.34;5148727;27;20051;-68
2022/08/08 08:10:45;;;;;;;7.80;2.80;;;;;;;20.19;53.79;99665.13;5148645;27;20051;-68
2022/08/08 08:13:22;;;;;;;4.30;2.53;;;;;;;20.19;54.89;99674.06;5148859;27;20059;-68
2022/08/08 08:15:59;;;;;;;3.92;2.72;;;;;;;20.04;55.51;99653.91;5148533;27;20311;-69
2022/08/08 08:18:32;;;;;;;3.65;2.40;;;;;;;20.19;54.55;99674.06;5148978;27;20063;-68
2022/08/08 08:21:01;;;;;;;3.45;2.30;;;;;;;20.10;54.23;99674.91;5148807;27;20107;-69
2022/08/08 08:23:29;;;;;;;4.05;2.67;;;;;;;20.09;54.50;99677.72;5148802;27;20051;-68
2022/08/08 08:25:56;;;;;;;4.68;2.40;;;;;;;19.99;53.39;99660.69;5148739;27;20314;-68
2022/08/08 08:28:24;;;;;;;4.75;2.30;;;;;;;20.10;53.89;99682.13;5148232;27;20116;-68
2022/08/08 08:30:52;;;;;;;3.45;2.42;;;;;;;20.11;53.27;99684.66;5148404;27;20074;-69
2022/08/08 08:33:19;;;;;;;4.43;3.30;;;;;;;20.05;53.34;99684.38;5148468;27;20116;-69
2022/08/08 08:35:48;;;;;;;10.27;6.80;;;;;;;20.05;54.00;99690.59;5148469;27;20218;-69
2022/08/08 08:38:15;;;;;;;9.05;6.30;;;;;;;20.13;53.33;99685.38;5130008;27;20062;-68
2022/08/08 08:40:43;;;;;;;7.00;4.93;;;;;;;20.00;54.03;99682.09;5148753;27;20315;-69
2022/08/08 08:43:11;;;;;;;8.45;4.30;;;;;;;19.88;54.12;99658.13;5148423;27;20368;-69
2022/08/08 08:45:38;;;;;;;5.78;4.28;;;;;;;19.97;54.40;99678.81;5148041;27;20253;-69
2022/08/08 08:48:06;;;;;;;7.88;4.28;;;;;;;19.85;54.94;99676.22;5148062;27;20073;-69
2022/08/08 08:50:35;;;;;;;5.10;3.75;;;;;;;19.97;54.43;99682.34;5148167;27;20257;-69
2022/08/08 08:53:05;;;;;;;4.38;3.58;;;;;;;19.92;54.70;99662.22;5148343;27;20058;-69
2022/08/08 08:55:37;;;;;;;5.35;3.58;;;;;;;20.01;53.91;99669.47;5147844;27;20055;-69
2022/08/08 08:58:05;;;;;;;5.22;3.47;;;;;;;20.01;53.83;99673.03;5147989;27;20063;-69
2022/08/08 09:00:35;;;;;;;4.93;3.30;;;;;;;19.84;54.22;99633.34;5147865;27;20108;-69
2022/08/08 09:03:08;;;;;;;4.90;2.92;;;;;;;20.00;54.77;99652.50;5148049;27;20124;-69
2022/08/08 09:05:38;;;;;;;4.88;2.30;;;;;;;19.67;54.07;99612.44;5148165;27;20085;-69
2022/08/08 09:08:08;;;;;;;5.40;2.95;;;;;;;19.98;55.33;99654.47;5147938;27;20360;-69
2022/08/08 09:10:37;;;;;;;8.68;3.03;;;;;;;19.25;55.49;99521.16;5148097;27;20257;-69
2022/08/08 09:13:06;;;;;;;5.50;3.10;;;;;;;19.93;55.76;99640.56;5147972;27;20253;-69
2022/08/08 09:15:33;;;;;;;5.03;3.05;;;;;;;19.97;55.36;99639.31;5147831;27;20116;-69
2022/08/08 09:18:00;;;;;;;5.88;3.30;;;;;;;19.91;55.66;99642.56;5147916;27;20055;-69
2022/08/08 09:20:28;;;;;;;6.90;3.70;;;;;;;19.75;55.58;99610.75;5147504;27;20059;-69
2022/08/08 09:22:56;;;;;;;5.88;3.33;;;;;;;19.91;55.65;99642.56;5147432;27;20055;-69
2022/08/08 09:25:25;;;;;;;7.38;4.10;;;;;;;19.80;56.18;99619.31;5147451;27;20051;-69
2022/08/08 09:27:53;;;;;;;4.07;2.63;;;;;;;19.86;56.34;99636.72;5147327;27;20051;-69
2022/08/08 09:30:20;;;;;;;5.05;3.15;;;;;;;19.42;56.67;99578.81;5147490;27;20051;-69
2022/08/08 09:32:52;;;;;;;5.15;2.95;;;;;;;19.77;57.73;99646.44;5147079;27;20103;-69
2022/08/08 09:35:23;;;;;;;5.45;2.50;;;;;;;19.80;56.88;99656.97;5147233;27;20063;-69
2022/08/08 09:37:52;;;;;;;5.05;2.97;;;;;;;19.83;56.56;99662.06;5147524;27;20055;-69
2022/08/08 09:40:21;;;;;;;4.30;2.70;;;;;;;19.81;57.56;99661.34;5147612;27;20299;-69
2022/08/08 09:42:54;;;;;;;4.13;2.00;;;;;;;19.81;58.06;99673.94;5147031;27;20047;-69
2022/08/08 09:45:25;;;;;;;3.73;2.27;;;;;;;19.70;55.66;99677.53;5147431;27;20108;-69
2022/08/08 09:47:53;;;;;;;3.30;2.13;;;;;;;19.73;55.66;99681.81;5146748;27;20249;-69
2022/08/08 09:50:25;;;;;;;4.35;2.42;;;;;;;19.74;55.86;99686.19;5147087;27;20039;-69
2022/08/08 09:52:54;;;;;;;5.65;1.95;;;;;;;19.72;55.25;99686.34;5147157;27;20307;-69
2022/08/08 09:55:22;;;;;;;3.45;2.58;;;;;;;19.73;55.05;99679.97;5147475;27;20063;-69
2022/08/08 09:58:00;;;;;;;2.67;1.90;;;;;;;19.70;55.53;99676.69;5146653;27;20100;-69
2022/08/08 10:00:31;;;;;;;3.85;1.80;;;;;;;19.64;55.24;99683.47;5146924;27;20055;-69
2022/08/08 10:03:03;;;;;;;5.45;2.72;;;;;;;19.43;56.22;99659.31;5147016;27;20043;-69
2022/08/08 10:05:34;;;;;;;7.05;3.13;;;;;;;19.58;56.32;99677.78;5146660;27;20318;-69
2022/08/08 10:08:03;;;;;;;4.03;2.45;;;;;;;19.60;56.88;99678.50;5146521;27;20055;-69
2022/08/08 10:10:32;;;;;;;4.20;2.30;;;;;;;19.23;57.53;99626.06;5146486;27;20103;-69
2022/08/08 10:13:01;;;;;;;4.55;2.20;;;;;;;19.57;57.50;99668.84;5128806;27;20043;-69
2022/08/08 10:15:36;;;;;;;4.00;2.53;;;;;;;19.50;58.93;99657.78;5146882;27;20039;-69
2022/08/08 10:18:04;;;;;;;6.85;2.10;;;;;;;19.34;59.07;99635.03;5146463;27;20055;-68
2022/08/08 10:20:39;;;;;;;5.53;2.78;;;;;;;19.56;59.39;99653.72;5146750;27;20051;-69
2022/08/08 10:23:08;;;;;;;6.22;3.38;;;;;;;19.54;58.26;99659.22;5146583;27;20311;-69
2022/08/08 10:25:39;;;;;;;4.55;2.83;;;;;;;19.58;58.36;99684.00;5146367;27;20051;-69
2022/08/08 10:28:15;;;;;;;4.70;3.20;;;;;;;19.58;58.48;99692.06;5146480;27;20257;-68
2022/08/08 10:30:55;;;;;;;3.85;2.80;;;;;;;19.50;58.34;99686.50;5146304;27;20055;-69
2022/08/08 10:33:31;;;;;;;4.50;2.60;;;;;;;19.48;58.53;99688.47;5146623;27;20062;-68
2022/08/08 10:36:02;;;;;;;5.65;2.60;;;;;;;19.52;58.82;99689.91;5146457;27;20108;-69
2022/08/08 10:38:31;;;;;;;3.97;2.40;;;;;;;19.53;58.48;99688.94;5146484;27;20063;-69
2022/08/08 10:41:03;;;;;;;7.10;3.15;;;;;;;19.48;59.71;99691.16;5146005;27;20055;-69
2022/08/08 10:43:39;;;;;;;3.50;2.58;;;;;;;19.39;60.61;99690.13;5145911;27;20249;-68
2022/08/08 10:46:24;;;;;;;4.20;2.97;;;;;;;19.44;60.53;99692.41;5146436;27;20369;-68
2022/08/08 10:48:53;;;;;;;4.68;2.92;;;;;;;19.47;60.18;99703.75;5145864;28;20051;-68
2022/08/08 10:51:20;;;;;;;3.75;3.13;;;;;;;19.53;60.23;99699.69;5146258;28;20356;-69
2022/08/08 10:53:49;;;;;;;4.22;3.40;;;;;;;19.53;61.18;99699.69;5145969;28;20055;-69
2022/08/08 10:56:17;;;;;;;6.05;3.10;;;;;;;19.47;60.57;99695.69;5146376;28;20051;-69
2022/08/08 10:58:45;;;;;;;5.72;3.30;;;;;;;19.53;60.59;99692.47;5146399;28;20291;-69
2022/08/08 11:01:14;;;;;;;5.50;3.33;;;;;;;19.52;61.39;99701.50;5149739;27;20055;-69
2022/08/08 11:03:42;;;;;;;4.68;3.30;;;;;;;19.55;60.44;99708.47;5150871;27;20188;-69
2022/08/08 11:06:11;;;;;;;3.97;3.22;;;;;;;19.55;61.32;99711.16;5150305;27;20256;-69
2022/08/08 11:08:40;;;;;;;3.78;3.20;;;;;;;19.37;60.68;99675.94;5150402;27;20055;-68
2022/08/08 11:11:11;;;;;;;5.03;3.65;;;;;;;19.47;61.81;99703.75;5150112;27;20257;-69
2022/08/08 11:13:40;;;;;;;5.38;3.75;;;;;;;19.48;60.36;99709.97;5150020;27;20104;-69
2022/08/08 11:16:11;;;;;;;5.13;3.42;;;;;;;19.31;61.24;99679.16;5150086;27;20074;-68
2022/08/08 11:18:39;;;;;;;4.15;2.97;;;;;;;19.46;60.71;99699.34;5149878;27;20103;-69
2022/08/08 11:21:08;;;;;;;4.00;3.30;;;;;;;19.46;61.12;99696.66;5149461;27;20051;-68
2022/08/08 11:23:36;;;;;;;3.92;3.30;;;;;;;19.35;61.66;99677.03;5149577;27;20100;-69
2022/08/08 11:26:05;;;;;;;5.65;3.75;;;;;;;19.13;61.60;99656.53;5149610;27;20062;-69
2022/08/08 11:28:36;;;;;;;4.45;3.08;;;;;;;19.38;61.25;99698.28;5149812;27;20039;-68
2022/08/08 11:31:04;;;;;;;6.82;3.50;;;;;;;19.40;61.16;99701.72;5149911;27;20108;-68
2022/08/08 11:33:35;;;;;;;4.15;3.33;;;;;;;19.45;61.77;99710.25;5149745;27;20054;-69
2022/08/08 11:36:03;;;;;;;3.50;2.70;;;;;;;19.44;61.06;99703.16;5149786;27;20059;-68
2022/08/08 11:38:30;;;;;;;3.70;3.20;;;;;;;19.44;60.94;99714.75;5149960;27;20062;-69
2022/08/08 11:40:57;;;;;;;5.68;3.28;;;;;;;19.27;61.29;99688.47;5149661;27;20112;-69
2022/08/08 11:43:25;;;;;;;4.40;3.47;;;;;;;19.44;61.61;99712.06;5149457;27;20047;-69
2022/08/08 11:45:53;;;;;;;5.75;3.85;;;;;;;19.01;61.38;99649.53;5149629;27;20074;-69
2022/08/08 11:48:21;;;;;;;5.18;3.63;;;;;;;19.43;61.52;99709.53;5149397;27;20051;-69
2022/08/08 11:50:50;;;;;;;4.18;2.65;;;;;;;19.45;61.10;99708.41;5149415;27;20051;-69
2022/08/08 11:53:20;;;;;;;5.03;3.10;;;;;;;19.46;60.76;99706.56;5149554;27;20043;-69
2022/08/08 11:55:50;;;;;;;3.65;2.80;;;;;;;19.44;60.81;99720.13;5149622;27;20084;-69
2022/08/08 11:58:18;;;;;;;4.63;3.50;;;;;;;19.39;61.02;99717.00;5149158;27;20066;-68
2022/08/08 12:00:46;;;;;;;4.28;3.15;;;;;;;19.39;60.76;99722.38;5149543;27;20241;-69
2022/08/08 12:03:16;;;;;;;4.47;3.03;;;;;;;19.38;61.45;99723.31;5149237;27;20047;-69
2022/08/08 12:05:45;;;;;;;4.78;3.30;;;;;;;19.37;61.36;99729.69;5149498;27;20322;-69
2022/08/08 12:08:15;;;;;;;6.50;3.28;;;;;;;19.38;61.64;99727.84;5149169;27;20371;-68
2022/08/08 12:10:49;;;;;;;4.80;3.30;;;;;;;19.26;61.97;99702.03;5149041;27;20071;-69